createdAt,value
2023-01-15T00:00:06.141Z,10.50
2023-01-15T00:02:33.088Z,10.40
2023-01-15T00:05:03.047Z,10.50
2023-01-15T00:07:30.900Z,10.50
2023-01-15T00:09:58.180Z,10.50
2023-01-15T00:12:25.425Z,10.50
2023-01-15T00:14:52.724Z,10.50
2023-01-15T00:17:19.776Z,10.40
2023-01-15T00:19:47.129Z,10.40
2023-01-15T00:22:14.061Z,10.40
2023-01-15T00:24:59.669Z,10.50
2023-01-15T00:27:40.738Z,10.40
2023-01-15T00:30:14.830Z,10.40
2023-01-15T00:32:42.905Z,10.40
2023-01-15T00:35:23.346Z,10.40
2023-01-15T00:37:50.724Z,10.40
2023-01-15T00:40:19.697Z,10.40
2023-01-15T00:42:54.161Z,10.40
2023-01-15T00:45:22.403Z,10.40
2023-01-15T00:47:50.580Z,10.40
2023-01-15T00:50:17.519Z,10.30
2023-01-15T00:52:44.573Z,10.40
2023-01-15T00:55:11.532Z,10.30
2023-01-15T00:57:38.693Z,10.30
2023-01-15T01:00:06.541Z,10.30
2023-01-15T01:02:33.647Z,10.30
2023-01-15T01:05:00.833Z,10.30
2023-01-15T01:07:27.732Z,10.30
2023-01-15T01:09:54.886Z,10.30
2023-01-15T01:12:23.597Z,10.30
2023-01-15T01:14:50.640Z,10.30
2023-01-15T01:17:17.713Z,10.30
2023-01-15T01:19:44.675Z,10.20
2023-01-15T01:22:11.816Z,10.30
2023-01-15T01:24:38.833Z,10.20
2023-01-15T01:27:07.270Z,10.30
2023-01-15T01:29:34.457Z,10.30
2023-01-15T01:32:01.724Z,10.30
2023-01-15T01:34:28.769Z,10.30
2023-01-15T01:36:55.795Z,10.30
2023-01-15T01:39:22.763Z,10.30
2023-01-15T01:41:49.879Z,10.30
2023-01-15T01:44:35.141Z,10.30
2023-01-15T01:47:08.188Z,10.30
2023-01-15T01:49:37.898Z,10.30
2023-01-15T01:52:10.050Z,10.30
2023-01-15T01:54:38.525Z,10.30
2023-01-15T01:57:07.145Z,10.30
2023-01-15T01:59:35.029Z,10.30
2023-01-15T02:02:03.352Z,10.30
2023-01-15T02:04:31.771Z,10.20
2023-01-15T02:07:01.236Z,10.20
2023-01-15T02:09:28.378Z,10.20
2023-01-15T02:12:01.452Z,10.20
2023-01-15T02:14:39.125Z,10.20
2023-01-15T02:17:16.779Z,10.20
2023-01-15T02:20:20.995Z,10.20
2023-01-15T02:22:55.078Z,10.20
2023-01-15T02:25:41.679Z,10.20
2023-01-15T02:28:16.128Z,10.20
2023-01-15T02:30:49.157Z,10.20
2023-01-15T02:33:47.886Z,10.20
2023-01-15T02:36:19.419Z,10.10
2023-01-15T02:38:52.902Z,10.20
2023-01-15T02:41:25.047Z,10.10
2023-01-15T02:43:56.557Z,10.10
2023-01-15T02:46:30.830Z,10.10
2023-01-15T02:49:00.632Z,10.10
2023-01-15T02:51:39.859Z,10.10
2023-01-15T02:54:12.170Z,10.00
2023-01-15T02:56:42.812Z,10.00
2023-01-15T02:59:17.578Z,10.00
2023-01-15T03:01:47.936Z,10.00
2023-01-15T03:04:47.730Z,10.00
2023-01-15T03:07:20.492Z,10.00
2023-01-15T03:09:49.682Z,10.00
2023-01-15T03:13:02.373Z,10.00
2023-01-15T03:16:05.515Z,10.00
2023-01-15T03:18:38.997Z,10.00
2023-01-15T03:21:12.654Z,10.00
2023-01-15T03:23:45.568Z,10.00
2023-01-15T03:26:12.677Z,9.90
2023-01-15T03:28:44.939Z,9.90
2023-01-15T03:31:12.135Z,9.90
2023-01-15T03:33:39.086Z,10.00
2023-01-15T03:36:12.990Z,10.00
2023-01-15T03:38:47.203Z,10.10
2023-01-15T03:41:35.445Z,10.10
2023-01-15T03:44:16.692Z,10.10
2023-01-15T03:46:54.554Z,10.10
2023-01-15T03:49:35.137Z,10.10
2023-01-15T03:52:18.492Z,10.10
2023-01-15T03:55:07.771Z,10.10
2023-01-15T03:57:43.690Z,10.20
2023-01-15T04:00:20.667Z,10.20
2023-01-15T04:02:54.315Z,10.10
2023-01-15T04:05:24.806Z,10.20
2023-01-15T04:07:54.274Z,10.10
2023-01-15T04:10:22.239Z,10.10
2023-01-15T04:12:50.724Z,10.20
2023-01-15T04:15:19.658Z,10.10
2023-01-15T04:17:46.829Z,10.20
2023-01-15T04:20:14.700Z,10.20
2023-01-15T04:22:43.782Z,10.20
2023-01-15T04:25:10.881Z,10.20
2023-01-15T04:27:38.065Z,10.20
2023-01-15T04:30:05.768Z,10.20
2023-01-15T04:32:32.907Z,10.20
2023-01-15T04:34:59.856Z,10.20
2023-01-15T04:37:26.796Z,10.20
2023-01-15T04:39:53.725Z,10.20
2023-01-15T04:42:39.310Z,10.20
2023-01-15T04:45:06.845Z,10.20
2023-01-15T04:47:33.829Z,10.20
2023-01-15T04:50:00.796Z,10.20
2023-01-15T04:52:27.738Z,10.20
2023-01-15T04:54:55.755Z,10.20
2023-01-15T04:57:22.728Z,10.20
2023-01-15T04:59:49.700Z,10.20
2023-01-15T05:02:16.986Z,10.20
2023-01-15T05:04:44.151Z,10.20
2023-01-15T05:07:11.196Z,10.20
2023-01-15T05:09:38.163Z,10.20
2023-01-15T05:12:05.591Z,10.20
2023-01-15T05:14:32.517Z,10.10
2023-01-15T05:16:59.677Z,10.10
2023-01-15T05:19:26.668Z,10.10
2023-01-15T05:21:53.735Z,10.10
2023-01-15T05:24:20.689Z,10.20
2023-01-15T05:26:47.799Z,10.10
2023-01-15T05:29:14.946Z,10.10
2023-01-15T05:31:45.015Z,10.10
2023-01-15T05:34:13.155Z,10.10
2023-01-15T05:36:40.695Z,10.00
2023-01-15T05:39:08.303Z,10.00
2023-01-15T05:41:50.670Z,10.00
2023-01-15T05:44:24.088Z,9.90
2023-01-15T05:46:53.548Z,9.90
2023-01-15T05:49:23.627Z,9.90
2023-01-15T05:51:51.603Z,9.90
2023-01-15T05:54:30.292Z,9.90
2023-01-15T05:56:57.522Z,9.90
2023-01-15T05:59:26.645Z,9.90
2023-01-15T06:01:54.427Z,9.90
2023-01-15T06:04:21.867Z,9.90
2023-01-15T06:06:50.481Z,10.00
2023-01-15T06:09:18.288Z,10.00
2023-01-15T06:11:45.596Z,10.00
2023-01-15T06:14:13.141Z,9.90
2023-01-15T06:16:41.546Z,9.90
2023-01-15T06:19:11.151Z,9.90
2023-01-15T06:21:38.269Z,9.90
2023-01-15T06:24:05.914Z,9.90
2023-01-15T06:26:33.512Z,9.90
2023-01-15T06:29:00.687Z,9.90
2023-01-15T06:31:27.981Z,9.90
2023-01-15T06:33:55.500Z,9.90
2023-01-15T06:36:24.420Z,10.00
2023-01-15T06:38:51.841Z,9.90
2023-01-15T06:41:41.597Z,9.90
2023-01-15T06:44:32.278Z,9.90
2023-01-15T06:47:21.095Z,9.90
2023-01-15T06:49:56.708Z,9.90
2023-01-15T06:52:28.481Z,9.90
2023-01-15T06:54:55.869Z,9.90
2023-01-15T06:57:23.377Z,10.00
2023-01-15T06:59:51.269Z,10.00
2023-01-15T07:02:18.629Z,10.00
2023-01-15T07:04:46.669Z,10.00
2023-01-15T07:07:15.586Z,10.00
2023-01-15T07:09:42.677Z,10.00
2023-01-15T07:12:09.639Z,10.00
2023-01-15T07:14:36.881Z,10.00
2023-01-15T07:17:03.962Z,10.00
2023-01-15T07:19:30.996Z,10.00
2023-01-15T07:21:58.090Z,10.00
2023-01-15T07:24:25.109Z,10.00
2023-01-15T07:26:52.055Z,10.00
2023-01-15T07:29:19.028Z,10.00
2023-01-15T07:31:46.101Z,10.00
2023-01-15T07:34:13.182Z,10.10
2023-01-15T07:36:40.230Z,10.10
2023-01-15T07:39:09.098Z,10.10
2023-01-15T07:41:54.713Z,10.10
2023-01-15T07:44:41.658Z,10.00
2023-01-15T07:47:47.806Z,10.00
2023-01-15T07:50:21.433Z,10.00
2023-01-15T07:52:48.495Z,10.00
2023-01-15T07:55:15.784Z,10.00
2023-01-15T07:57:43.587Z,10.00
2023-01-15T08:00:14.087Z,10.00
2023-01-15T08:02:41.815Z,10.00
2023-01-15T08:05:09.649Z,10.00
2023-01-15T08:07:41.378Z,10.00
2023-01-15T08:10:10.407Z,10.00
2023-01-15T08:12:57.522Z,10.00
2023-01-15T08:15:25.881Z,10.00
2023-01-15T08:17:53.330Z,10.00
2023-01-15T08:20:23.393Z,10.00
2023-01-15T08:22:50.886Z,9.90
2023-01-15T08:25:23.626Z,9.90
2023-01-15T08:27:51.723Z,9.90
2023-01-15T08:30:24.644Z,9.90
2023-01-15T08:32:52.146Z,9.90
2023-01-15T08:35:19.544Z,10.00
2023-01-15T08:37:46.728Z,10.00
2023-01-15T08:40:13.903Z,10.00
2023-01-15T08:42:41.186Z,10.00
2023-01-15T08:45:09.325Z,10.00
2023-01-15T08:47:37.388Z,10.00
2023-01-15T08:50:09.593Z,10.10
2023-01-15T08:52:38.332Z,10.10
2023-01-15T08:55:06.352Z,10.20
2023-01-15T08:57:34.005Z,10.20
2023-01-15T09:00:01.009Z,10.20
2023-01-15T09:02:29.864Z,10.20
2023-01-15T09:04:57.113Z,10.20
2023-01-15T09:07:24.516Z,10.20
2023-01-15T09:09:51.514Z,10.20
2023-01-15T09:12:18.756Z,10.20
2023-01-15T09:14:56.941Z,10.20
2023-01-15T09:17:31.903Z,10.20
2023-01-15T09:20:00.088Z,10.30
2023-01-15T09:22:30.125Z,10.20
2023-01-15T09:24:57.357Z,10.30
2023-01-15T09:27:24.294Z,10.20
2023-01-15T09:29:51.362Z,10.20
2023-01-15T09:32:18.305Z,10.20
2023-01-15T09:34:45.291Z,10.20
2023-01-15T09:37:12.388Z,10.20
2023-01-15T09:39:39.423Z,10.10
2023-01-15T09:42:32.746Z,10.10
2023-01-15T09:45:10.050Z,10.10
2023-01-15T09:47:59.403Z,10.10
2023-01-15T09:50:41.979Z,10.00
2023-01-15T09:53:27.817Z,10.00
2023-01-15T09:55:55.209Z,10.00
2023-01-15T09:58:32.754Z,10.00
2023-01-15T10:01:00.407Z,9.90
2023-01-15T10:03:45.156Z,9.90
2023-01-15T10:06:31.096Z,9.90
2023-01-15T10:09:12.425Z,9.90
2023-01-15T10:12:04.257Z,9.90
2023-01-15T10:14:43.668Z,9.90
2023-01-15T10:17:27.148Z,9.80
2023-01-15T10:19:55.166Z,9.90
2023-01-15T10:22:27.754Z,9.90
2023-01-15T10:24:58.049Z,9.90
2023-01-15T10:27:30.219Z,9.90
2023-01-15T10:30:12.197Z,9.90
2023-01-15T10:33:07.104Z,9.90
2023-01-15T10:35:41.991Z,9.90
2023-01-15T10:38:37.386Z,10.00
2023-01-15T10:41:27.157Z,10.00
2023-01-15T10:43:57.975Z,10.10
2023-01-15T10:46:28.217Z,10.10
2023-01-15T10:48:59.906Z,10.20
2023-01-15T10:51:51.451Z,10.20
2023-01-15T10:54:28.188Z,10.30
2023-01-15T10:57:05.059Z,10.30
2023-01-15T10:59:38.051Z,10.30
2023-01-15T11:02:27.300Z,10.30
2023-01-15T11:04:54.580Z,10.30
2023-01-15T11:08:05.563Z,10.30
2023-01-15T11:10:30.506Z,10.30
2023-01-15T11:13:43.180Z,10.20
2023-01-15T11:16:38.960Z,10.30
2023-01-15T11:19:36.965Z,10.30
2023-01-15T11:22:22.070Z,10.30
2023-01-15T11:24:56.701Z,10.20
2023-01-15T11:27:34.065Z,10.20
2023-01-15T11:30:04.002Z,10.20
2023-01-15T11:32:38.780Z,10.20
2023-01-15T11:35:09.115Z,10.20
2023-01-15T11:37:36.098Z,10.10
2023-01-15T11:40:08.081Z,10.10
2023-01-15T11:42:56.557Z,10.10
2023-01-15T11:45:44.069Z,10.20
2023-01-15T11:48:40.937Z,10.20
2023-01-15T11:51:14.423Z,10.20
2023-01-15T11:53:49.448Z,10.30
2023-01-15T11:56:19.932Z,10.30
2023-01-15T11:58:51.044Z,10.30
2023-01-15T12:01:36.902Z,10.30
2023-01-15T12:04:24.481Z,10.30
2023-01-15T12:06:51.610Z,10.30
2023-01-15T12:09:39.900Z,10.40
2023-01-15T12:12:16.556Z,10.40
2023-01-15T12:15:24.877Z,10.40
2023-01-15T12:18:07.490Z,10.40
2023-01-15T12:20:56.458Z,10.40
2023-01-15T12:24:01.574Z,10.40
2023-01-15T12:26:35.463Z,10.40
2023-01-15T12:29:24.317Z,10.40
2023-01-15T12:31:59.618Z,10.40
2023-01-15T12:34:36.814Z,10.40
2023-01-15T12:37:09.905Z,10.40
2023-01-15T12:40:08.671Z,10.40
2023-01-15T12:42:55.484Z,10.50
2023-01-15T12:45:27.132Z,10.50
2023-01-15T12:48:02.428Z,10.50
2023-01-15T12:50:52.172Z,10.50
2023-01-15T12:53:42.792Z,10.50
2023-01-15T12:56:24.457Z,10.60
2023-01-15T12:59:32.110Z,10.60
2023-01-15T13:02:29.728Z,10.60
2023-01-15T13:05:28.024Z,10.60
2023-01-15T13:08:16.992Z,10.60
2023-01-15T13:10:44.533Z,10.50
2023-01-15T13:13:16.478Z,10.60
2023-01-15T13:16:06.507Z,10.50
2023-01-15T13:18:57.476Z,10.50
2023-01-15T13:21:28.817Z,10.50
2023-01-15T13:24:19.811Z,10.50
2023-01-15T13:27:05.671Z,10.50
2023-01-15T13:29:47.635Z,10.50
2023-01-15T13:32:18.390Z,10.60
2023-01-15T13:35:10.372Z,10.60
2023-01-15T13:37:47.258Z,10.60
2023-01-15T13:40:33.007Z,10.60
2023-01-15T13:43:01.115Z,10.60
2023-01-15T13:45:39.264Z,10.60
2023-01-15T13:48:55.309Z,10.60
2023-01-15T13:51:32.922Z,10.60
2023-01-15T13:54:00.964Z,10.60
2023-01-15T13:56:31.095Z,10.60
2023-01-15T13:59:02.941Z,10.60
2023-01-15T14:01:37.301Z,10.60
2023-01-15T14:04:10.611Z,10.60
2023-01-15T14:06:46.657Z,10.60
2023-01-15T14:09:20.684Z,10.60
2023-01-15T14:12:05.549Z,10.60
2023-01-15T14:14:47.461Z,10.60
2023-01-15T14:17:47.647Z,10.60
2023-01-15T14:20:33.952Z,10.60
2023-01-15T14:23:03.766Z,10.60
2023-01-15T14:25:40.355Z,10.60
2023-01-15T14:28:36.459Z,10.60
2023-01-15T14:31:14.437Z,10.60
2023-01-15T14:33:51.318Z,10.60
2023-01-15T14:36:30.224Z,10.60
2023-01-15T14:39:00.048Z,10.50
2023-01-15T14:41:30.728Z,10.60
2023-01-15T14:44:01.426Z,10.50
2023-01-15T14:46:34.457Z,10.50
2023-01-15T14:49:02.378Z,10.50
2023-01-15T14:51:37.287Z,10.50
2023-01-15T14:54:11.260Z,10.40
2023-01-15T14:56:44.164Z,10.40
2023-01-15T14:59:25.788Z,10.40
2023-01-15T15:01:57.132Z,10.30
2023-01-15T15:04:54.824Z,10.30
2023-01-15T15:07:25.416Z,10.30
2023-01-15T15:10:13.678Z,10.30
2023-01-15T15:12:49.831Z,10.30
2023-01-15T15:15:24.819Z,10.30
2023-01-15T15:18:06.046Z,10.30
2023-01-15T15:20:41.972Z,10.30
2023-01-15T15:23:15.160Z,10.30
2023-01-15T15:25:43.294Z,10.30
2023-01-15T15:28:12.197Z,10.30
2023-01-15T15:30:44.903Z,10.30
2023-01-15T15:33:25.119Z,10.40
2023-01-15T15:35:58.380Z,10.30
2023-01-15T15:38:26.298Z,10.30
2023-01-15T15:41:02.685Z,10.30
2023-01-15T15:44:00.616Z,10.30
2023-01-15T15:46:51.619Z,10.30
2023-01-15T15:49:20.117Z,10.30
2023-01-15T15:51:52.623Z,10.30
2023-01-15T15:54:23.952Z,10.30
2023-01-15T15:57:02.024Z,10.30
2023-01-15T15:59:43.828Z,10.30
2023-01-15T16:02:18.101Z,10.30
2023-01-15T16:04:56.473Z,10.30
2023-01-15T16:07:29.773Z,10.40
2023-01-15T16:10:12.607Z,10.40
2023-01-15T16:12:54.622Z,10.40
2023-01-15T16:15:29.588Z,10.40
2023-01-15T16:18:01.533Z,10.40
2023-01-15T16:20:28.721Z,10.40
2023-01-15T16:23:04.008Z,10.40
2023-01-15T16:25:35.768Z,10.40
2023-01-15T16:28:04.453Z,10.40
2023-01-15T16:30:32.669Z,10.40
2023-01-15T16:33:07.750Z,10.40
2023-01-15T16:35:37.073Z,10.40
2023-01-15T16:38:05.008Z,10.40
2023-01-15T16:40:40.217Z,10.40
2023-01-15T16:43:23.602Z,10.40
2023-01-15T16:45:56.352Z,10.30
2023-01-15T16:48:36.759Z,10.30
2023-01-15T16:51:26.991Z,10.30
2023-01-15T16:53:54.536Z,10.30
2023-01-15T16:56:39.771Z,10.20
2023-01-15T16:59:17.697Z,10.20
2023-01-15T17:01:47.371Z,10.20
2023-01-15T17:04:21.258Z,10.20
2023-01-15T17:07:04.264Z,10.30
2023-01-15T17:09:34.440Z,10.20
2023-01-15T17:12:09.078Z,10.20
2023-01-15T17:14:36.143Z,10.20
2023-01-15T17:17:15.187Z,10.20
2023-01-15T17:19:42.990Z,10.10
2023-01-15T17:22:16.816Z,10.10
2023-01-15T17:24:51.634Z,10.10
2023-01-15T17:27:18.660Z,10.10
2023-01-15T17:29:45.803Z,10.20
2023-01-15T17:32:26.083Z,10.10
2023-01-15T17:34:53.064Z,10.20
2023-01-15T17:37:20.167Z,10.20
2023-01-15T17:39:47.129Z,10.20
2023-01-15T17:42:19.334Z,10.20
2023-01-15T17:44:46.543Z,10.30
2023-01-15T17:47:13.810Z,10.30
2023-01-15T17:49:40.867Z,10.30
2023-01-15T17:52:18.133Z,10.30
2023-01-15T17:55:03.586Z,10.30
2023-01-15T17:57:49.143Z,10.30
2023-01-15T18:00:35.180Z,10.30
2023-01-15T18:03:21.213Z,10.30
2023-01-15T18:05:51.079Z,10.30
2023-01-15T18:08:18.885Z,10.30
2023-01-15T18:10:45.870Z,10.30
2023-01-15T18:13:12.831Z,10.30
2023-01-15T18:15:39.793Z,10.30
2023-01-15T18:18:06.759Z,10.30
2023-01-15T18:20:33.873Z,10.30
2023-01-15T18:23:00.852Z,10.30
2023-01-15T18:25:27.823Z,10.30
2023-01-15T18:27:54.728Z,10.30
2023-01-15T18:30:21.758Z,10.30
2023-01-15T18:32:48.995Z,10.30
2023-01-15T18:35:17.323Z,10.30
2023-01-15T18:37:44.986Z,10.30
2023-01-15T18:40:12.717Z,10.30
2023-01-15T18:42:59.157Z,10.30
2023-01-15T18:45:45.397Z,10.30
2023-01-15T18:48:12.266Z,10.30
2023-01-15T18:50:39.182Z,10.30
2023-01-15T18:53:08.405Z,10.30
2023-01-15T18:55:35.537Z,10.30
2023-01-15T18:58:02.675Z,10.30
2023-01-15T19:00:29.759Z,10.30
2023-01-15T19:02:56.818Z,10.30
2023-01-15T19:05:24.198Z,10.20
2023-01-15T19:07:51.216Z,10.20
2023-01-15T19:10:18.662Z,10.20
2023-01-15T19:12:45.940Z,10.20
2023-01-15T19:15:37.824Z,10.20
2023-01-15T19:18:24.325Z,10.20
2023-01-15T19:20:51.269Z,10.20
2023-01-15T19:23:20.735Z,10.20
2023-01-15T19:25:49.466Z,10.20
2023-01-15T19:28:19.776Z,10.20
2023-01-15T19:31:11.414Z,10.10
2023-01-15T19:33:38.466Z,10.10
2023-01-15T19:36:05.902Z,10.10
2023-01-15T19:38:36.062Z,10.10
2023-01-15T19:41:48.064Z,10.10
2023-01-15T19:44:41.268Z,10.10
2023-01-15T19:47:47.541Z,10.10
2023-01-15T19:50:20.193Z,10.00
2023-01-15T19:52:49.057Z,10.00
2023-01-15T19:55:17.747Z,10.00
2023-01-15T19:57:47.411Z,10.00
2023-01-15T20:00:18.140Z,10.00
2023-01-15T20:02:46.284Z,9.90
2023-01-15T20:05:15.010Z,9.90
2023-01-15T20:07:42.908Z,9.90
2023-01-15T20:10:13.273Z,9.90
2023-01-15T20:12:59.551Z,9.90
2023-01-15T20:15:27.152Z,9.90
2023-01-15T20:17:54.386Z,9.90
2023-01-15T20:20:22.134Z,9.90
2023-01-15T20:22:50.267Z,9.90
2023-01-15T20:25:17.707Z,9.90
2023-01-15T20:27:45.263Z,9.90
2023-01-15T20:30:15.066Z,9.90
2023-01-15T20:32:44.374Z,9.90
2023-01-15T20:35:14.557Z,9.90
2023-01-15T20:37:41.591Z,9.80
2023-01-15T20:40:09.719Z,9.80
2023-01-15T20:42:55.268Z,9.80
2023-01-15T20:45:22.431Z,9.80
2023-01-15T20:48:07.871Z,9.80
2023-01-15T20:50:36.458Z,9.80
2023-01-15T20:53:05.486Z,9.80
2023-01-15T20:55:54.794Z,9.80
2023-01-15T20:58:24.314Z,9.80
2023-01-15T21:00:52.095Z,9.80
2023-01-15T21:03:20.463Z,9.80
2023-01-15T21:05:47.824Z,9.80
2023-01-15T21:08:15.172Z,9.80
2023-01-15T21:10:42.374Z,9.80
2023-01-15T21:13:09.386Z,9.90
2023-01-15T21:15:39.033Z,9.90
2023-01-15T21:18:06.147Z,9.90
2023-01-15T21:20:33.141Z,9.80
2023-01-15T21:23:00.231Z,9.80
2023-01-15T21:25:27.396Z,9.80
2023-01-15T21:27:54.528Z,9.80
2023-01-15T21:30:21.508Z,9.80
2023-01-15T21:32:48.793Z,9.80
2023-01-15T21:35:16.075Z,9.80
2023-01-15T21:37:43.088Z,9.80
2023-01-15T21:40:11.919Z,9.70
2023-01-15T21:42:57.629Z,9.70
2023-01-15T21:45:24.691Z,9.70
2023-01-15T21:47:51.974Z,9.70
2023-01-15T21:50:20.387Z,9.70
2023-01-15T21:52:48.468Z,9.70
2023-01-15T21:55:15.534Z,9.70
2023-01-15T21:57:42.723Z,9.70
2023-01-15T22:00:11.583Z,9.80
2023-01-15T22:02:38.645Z,9.80
2023-01-15T22:05:06.222Z,9.70
2023-01-15T22:07:33.174Z,9.70
2023-01-15T22:10:01.647Z,9.70
2023-01-15T22:12:28.602Z,9.70
2023-01-15T22:14:57.504Z,9.70
2023-01-15T22:17:24.490Z,9.70
2023-01-15T22:19:51.534Z,9.70
2023-01-15T22:22:18.748Z,9.70
2023-01-15T22:24:45.743Z,9.70
2023-01-15T22:27:16.107Z,9.70
2023-01-15T22:29:43.830Z,9.70
2023-01-15T22:32:13.142Z,9.70
2023-01-15T22:34:40.194Z,9.70
2023-01-15T22:37:07.235Z,9.70
2023-01-15T22:39:34.588Z,9.70
2023-01-15T22:42:20.344Z,9.70
2023-01-15T22:44:48.901Z,9.80
2023-01-15T22:47:17.505Z,9.80
2023-01-15T22:49:44.579Z,9.80
2023-01-15T22:52:11.517Z,9.80
2023-01-15T22:54:38.594Z,9.80
2023-01-15T22:57:05.600Z,9.80
2023-01-15T22:59:32.531Z,9.80
2023-01-15T23:01:59.646Z,9.80
2023-01-15T23:04:27.072Z,9.90
2023-01-15T23:06:54.374Z,9.80
2023-01-15T23:09:23.611Z,9.90
2023-01-15T23:11:51.557Z,9.90
2023-01-15T23:14:19.860Z,9.90
2023-01-15T23:16:46.875Z,9.80
2023-01-15T23:19:14.469Z,9.80
2023-01-15T23:21:42.213Z,9.80
2023-01-15T23:24:09.632Z,9.80
2023-01-15T23:26:37.188Z,9.80
2023-01-15T23:29:04.564Z,9.80
2023-01-15T23:31:32.462Z,9.80
2023-01-15T23:33:59.897Z,9.80
2023-01-15T23:36:27.409Z,9.80
2023-01-15T23:38:54.769Z,9.80
2023-01-15T23:41:44.143Z,9.80
2023-01-15T23:44:34.040Z,9.80
2023-01-15T23:47:01.386Z,9.80
2023-01-15T23:49:28.517Z,9.80
2023-01-15T23:51:55.610Z,9.80
2023-01-15T23:54:25.346Z,9.80
2023-01-15T23:56:52.674Z,9.80
2023-01-15T23:59:19.615Z,9.80
